Airport View

Enter AWOS ICAO identifier for current METAR.

ex. KFNL

KMTP 100154Z AUTO 00000KT 23/22 A3002 RMK AO1 SLP164 T02330217

10 Jul 2020 02:09

Other Area AWOS: KGON - KBID - KHTO - KWST

TAF KGON 100000Z 1000/1024 15005KT P6SM FEW003 SCT250 FM100300 10004KT 4SM BR BKN003 FM100500 09004KT 1SM BR OVC003 FM101200 09016G22KT 5SM -RA BR OVC015 PROB30 1016/1018 12018G32KT 1SM +TSRA BKN007CB